Time;durP1;ratioP1;P1;durP2;ratioP2;P2;SDS_P1;SDS_P2;PMS_P1;PMS_P2;Temp;Humidity;BMP_temperature;BMP_pressure;BME280_temperature;BME280_humidity;BME280_pressure;Samples;Min_cycle;Max_cycle;Signal;HPM_P1;HPM_P2
2021/11/21 00:01:30;;;;;;;5.90;4.65;;;;;;;;;;5037130;28;20225;-84
2021/11/21 00:03:57;;;;;;;4.35;3.95;;;;;;;;;;5037182;28;20683;-83
2021/11/21 00:06:25;;;;;;;6.32;5.00;;;;;;;;;;5036597;28;20234;-84
2021/11/21 00:08:53;;;;;;;5.47;5.03;;;;;;;;;;5037106;28;20230;-84
2021/11/21 00:11:22;;;;;;;5.60;5.10;;;;;;;;;;5036797;28;20561;-82
2021/11/21 00:13:51;;;;;;;5.18;4.78;;;;;;;;;;5036534;28;20309;-84
2021/11/21 00:16:20;;;;;;;4.45;4.05;;;;;;;;;;5037096;28;20636;-84
2021/11/21 00:18:48;;;;;;;4.15;3.85;;;;;;;;;;5036601;28;20660;-84
2021/11/21 00:21:15;;;;;;;4.55;4.10;;;;;;;;;;5035997;28;20215;-83
2021/11/21 00:23:43;;;;;;;6.88;5.78;;;;;;;;;;5036160;28;20264;-83
2021/11/21 00:26:11;;;;;;;5.35;4.28;;;;;;;;;;5036241;28;20198;-84
2021/11/21 00:28:40;;;;;;;5.05;4.55;;;;;;;;;;5036055;28;20214;-84
2021/11/21 00:31:08;;;;;;;5.75;5.25;;;;;;;;;;5036608;28;20253;-83
2021/11/21 00:33:35;;;;;;;7.63;6.93;;;;;;;;;;5036084;28;20261;-84
2021/11/21 00:36:04;;;;;;;7.28;6.05;;;;;;;;;;5036873;28;20237;-84
2021/11/21 00:38:31;;;;;;;5.88;5.28;;;;;;;;;;5036655;28;20584;-83
2021/11/21 00:40:59;;;;;;;6.55;5.93;;;;;;;;;;5036771;28;20293;-83
2021/11/21 00:43:27;;;;;;;5.35;4.85;;;;;;;;;;5036025;28;20711;-83
2021/11/21 00:45:56;;;;;;;5.28;4.78;;;;;;;;;;5036405;28;20234;-84
2021/11/21 00:48:23;;;;;;;6.25;5.75;;;;;;;;;;5035971;28;20218;-84
2021/11/21 00:50:57;;;;;;;4.82;4.32;;;;;;;;;;5036245;28;20630;-84
2021/11/21 00:53:24;;;;;;;4.68;4.28;;;;;;;;;;5036548;28;20226;-84
2021/11/21 00:55:54;;;;;;;4.90;4.38;;;;;;;;;;5036896;28;20214;-84
2021/11/21 00:58:22;;;;;;;4.60;4.20;;;;;;;;;;5035964;28;20293;-84
2021/11/21 01:00:52;;;;;;;5.65;5.05;;;;;;;;;;5035483;28;20223;-83
2021/11/21 01:03:24;;;;;;;4.28;3.90;;;;;;;;;;5036772;28;20282;-84
2021/11/21 01:05:54;;;;;;;4.72;4.32;;;;;;;;;;5036881;28;20215;-84
2021/11/21 01:08:21;;;;;;;5.43;4.93;;;;;;;;;;5036319;28;20233;-83
2021/11/21 01:10:52;;;;;;;5.22;4.72;;;;;;;;;;5035864;28;20228;-84
2021/11/21 01:13:21;;;;;;;6.78;6.15;;;;;;;;;;5035636;28;20688;-84
2021/11/21 01:15:48;;;;;;;7.47;6.78;;;;;;;;;;5035889;28;20214;-84
2021/11/21 01:18:16;;;;;;;7.13;6.43;;;;;;;;;;5036094;28;20229;-84
2021/11/21 01:20:46;;;;;;;9.27;8.38;;;;;;;;;;5035520;28;20250;-84
2021/11/21 01:23:16;;;;;;;8.73;7.20;;;;;;;;;;5036338;28;20218;-84
2021/11/21 01:25:45;;;;;;;9.93;7.95;;;;;;;;;;5035053;28;20202;-84
2021/11/21 01:28:13;;;;;;;6.68;6.03;;;;;;;;;;5035080;28;20238;-84
2021/11/21 01:30:42;;;;;;;5.80;5.15;;;;;;;;;;5035978;28;20253;-84
2021/11/21 01:33:10;;;;;;;6.53;5.90;;;;;;;;;;5035535;28;20214;-84
2021/11/21 01:35:37;;;;;;;10.25;8.13;;;;;;;;;;5035080;28;20206;-83
2021/11/21 01:38:07;;;;;;;8.70;7.60;;;;;;;;;;5035485;28;20225;-85
2021/11/21 01:40:35;;;;;;;10.93;8.70;;;;;;;;;;5035903;28;20234;-84
2021/11/21 01:43:03;;;;;;;8.40;7.43;;;;;;;;;;5035303;28;20626;-84
2021/11/21 01:45:32;;;;;;;7.65;6.85;;;;;;;;;;5035163;28;20207;-84
2021/11/21 01:47:59;;;;;;;6.63;5.95;;;;;;;;;;5035129;28;20645;-83
2021/11/21 01:50:32;;;;;;;6.38;5.43;;;;;;;;;;5035659;28;20666;-83
2021/11/21 01:53:00;;;;;;;4.20;3.80;;;;;;;;;;5035220;28;20222;-83
2021/11/21 01:55:30;;;;;;;5.38;4.88;;;;;;;;;;5035707;28;20581;-84
2021/11/21 01:57:59;;;;;;;4.43;4.03;;;;;;;;;;5035335;28;20614;-83
2021/11/21 02:00:31;;;;;;;5.15;4.75;;;;;;;;;;5035581;28;20261;-83
2021/11/21 02:02:59;;;;;;;4.72;4.32;;;;;;;;;;5035834;28;20214;-84
2021/11/21 02:05:27;;;;;;;5.63;4.90;;;;;;;;;;5036000;28;20737;-84
2021/11/21 02:07:55;;;;;;;6.75;6.15;;;;;;;;;;5036188;28;20219;-84
2021/11/21 02:10:24;;;;;;;8.95;8.07;;;;;;;;;;4997036;28;1122499;-83
2021/11/21 02:12:54;;;;;;;5.18;4.72;;;;;;;;;;5037379;28;20692;-84
2021/11/21 02:15:25;;;;;;;6.35;5.75;;;;;;;;;;5040891;28;20245;-84
2021/11/21 02:17:54;;;;;;;5.32;4.82;;;;;;;;;;5040299;28;20229;-84
2021/11/21 02:20:26;;;;;;;4.88;4.47;;;;;;;;;;5039492;28;20258;-84
2021/11/21 02:22:53;;;;;;;4.78;4.38;;;;;;;;;;5040167;28;20195;-84
2021/11/21 02:25:21;;;;;;;7.95;7.18;;;;;;;;;;5040475;28;20218;-84
2021/11/21 02:27:49;;;;;;;7.00;6.30;;;;;;;;;;5040260;28;20622;-83
2021/11/21 02:30:16;;;;;;;5.05;4.55;;;;;;;;;;5040396;28;20627;-83
2021/11/21 02:32:49;;;;;;;6.93;6.22;;;;;;;;;;5039777;28;20245;-84
2021/11/21 02:35:17;;;;;;;5.28;4.78;;;;;;;;;;5039703;28;20261;-84
2021/11/21 02:37:46;;;;;;;6.05;5.45;;;;;;;;;;5040084;28;20633;-84
2021/11/21 02:40:16;;;;;;;4.93;4.53;;;;;;;;;;5039864;28;20226;-84
2021/11/21 02:42:44;;;;;;;6.30;5.70;;;;;;;;;;5039665;28;20237;-84
2021/11/21 02:45:14;;;;;;;6.00;5.47;;;;;;;;;;5040239;28;20638;-84
2021/11/21 02:47:42;;;;;;;7.28;6.25;;;;;;;;;;5040288;28;20282;-84
2021/11/21 02:50:17;;;;;;;7.70;6.60;;;;;;;;;;5040102;28;20226;-84
2021/11/21 02:52:46;;;;;;;6.53;5.82;;;;;;;;;;5042058;28;20202;-84
2021/11/21 02:55:14;;;;;;;9.80;8.00;;;;;;;;;;5041553;28;20214;-84
2021/11/21 02:57:42;;;;;;;8.23;7.38;;;;;;;;;;5041411;28;20202;-84
2021/11/21 03:00:15;;;;;;;9.00;7.55;;;;;;;;;;5040869;28;20250;-84
2021/11/21 03:02:46;;;;;;;8.13;7.30;;;;;;;;;;5039190;28;20248;-84
2021/11/21 03:05:14;;;;;;;5.05;4.50;;;;;;;;;;5038911;28;20223;-84
2021/11/21 03:07:42;;;;;;;7.35;6.45;;;;;;;;;;5038606;28;20266;-84
2021/11/21 03:10:14;;;;;;;7.45;6.32;;;;;;;;;;5037575;28;20265;-83
2021/11/21 03:12:42;;;;;;;8.82;7.65;;;;;;;;;;5037646;28;20278;-84
2021/11/21 03:15:10;;;;;;;7.68;6.68;;;;;;;;;;5038880;28;20307;-84
2021/11/21 03:17:39;;;;;;;8.25;7.53;;;;;;;;;;5038405;28;20253;-83
2021/11/21 03:20:08;;;;;;;8.73;7.63;;;;;;;;;;5037868;28;20626;-84
2021/11/21 03:22:35;;;;;;;8.70;7.75;;;;;;;;;;5038290;28;20187;-84
2021/11/21 03:25:03;;;;;;;6.70;6.07;;;;;;;;;;5038103;28;20216;-84
2021/11/21 03:27:32;;;;;;;7.53;6.80;;;;;;;;;;5038253;28;20672;-84
2021/11/21 03:30:00;;;;;;;6.90;6.25;;;;;;;;;;5038177;28;20257;-84
2021/11/21 03:32:28;;;;;;;7.28;6.57;;;;;;;;;;5038592;28;20213;-84
2021/11/21 03:34:55;;;;;;;5.68;5.13;;;;;;;;;;5038477;28;20242;-84
2021/11/21 03:37:23;;;;;;;6.15;5.55;;;;;;;;;;5037798;28;20225;-83
2021/11/21 03:39:51;;;;;;;7.18;5.72;;;;;;;;;;5038036;28;20262;-84
2021/11/21 03:42:19;;;;;;;6.30;5.68;;;;;;;;;;5038768;28;20214;-84
2021/11/21 03:44:48;;;;;;;6.28;5.25;;;;;;;;;;5038729;28;20230;-83
2021/11/21 03:47:16;;;;;;;5.47;4.97;;;;;;;;;;5038029;28;20238;-84
2021/11/21 03:49:43;;;;;;;6.63;5.90;;;;;;;;;;5038218;28;20250;-83
2021/11/21 03:52:11;;;;;;;6.22;5.18;;;;;;;;;;5038254;28;20229;-84
2021/11/21 03:54:39;;;;;;;4.60;4.22;;;;;;;;;;5037857;28;20251;-84
2021/11/21 03:57:07;;;;;;;4.65;4.25;;;;;;;;;;5037681;28;20187;-84
2021/11/21 03:59:35;;;;;;;5.00;4.53;;;;;;;;;;5037775;28;20635;-83
2021/11/21 04:02:05;;;;;;;4.53;4.13;;;;;;;;;;5038020;28;20190;-83
2021/11/21 04:04:33;;;;;;;7.07;6.35;;;;;;;;;;5038187;28;20182;-84
2021/11/21 04:07:01;;;;;;;5.40;4.90;;;;;;;;;;5037675;28;20649;-84
2021/11/21 04:09:29;;;;;;;7.30;5.00;;;;;;;;;;5036964;28;20265;-83
2021/11/21 04:11:57;;;;;;;5.35;4.85;;;;;;;;;;5037359;28;20237;-83
2021/11/21 04:14:24;;;;;;;5.10;4.60;;;;;;;;;;5037648;28;20680;-84
2021/11/21 04:16:52;;;;;;;4.30;3.90;;;;;;;;;;5037368;28;20277;-84
2021/11/21 04:19:21;;;;;;;5.28;4.50;;;;;;;;;;5037723;28;20261;-84
2021/11/21 04:21:49;;;;;;;5.55;4.78;;;;;;;;;;5037322;28;20242;-84
2021/11/21 04:24:16;;;;;;;4.38;3.97;;;;;;;;;;5037129;28;20287;-83
2021/11/21 04:26:46;;;;;;;5.63;5.07;;;;;;;;;;5037163;28;20210;-84
2021/11/21 04:29:14;;;;;;;5.38;4.47;;;;;;;;;;5037407;28;20230;-84
2021/11/21 04:31:42;;;;;;;7.82;7.05;;;;;;;;;;5036867;28;20230;-83
2021/11/21 04:34:09;;;;;;;6.90;6.28;;;;;;;;;;5037065;28;20656;-84
2021/11/21 04:36:39;;;;;;;7.30;6.25;;;;;;;;;;5035685;28;20243;-84
2021/11/21 04:39:06;;;;;;;5.93;5.32;;;;;;;;;;5036825;28;20215;-83
2021/11/21 04:41:34;;;;;;;4.90;4.40;;;;;;;;;;5037100;28;20225;-84
2021/11/21 04:44:03;;;;;;;5.38;4.88;;;;;;;;;;5036771;28;20244;-84
2021/11/21 04:46:31;;;;;;;4.80;4.40;;;;;;;;;;5036612;28;20191;-84
2021/11/21 04:48:58;;;;;;;6.80;5.72;;;;;;;;;;5036794;28;20277;-84
2021/11/21 04:51:26;;;;;;;6.13;5.00;;;;;;;;;;5036493;28;20214;-83
2021/11/21 04:53:55;;;;;;;4.97;4.47;;;;;;;;;;5036250;28;20237;-82
2021/11/21 04:56:23;;;;;;;5.10;4.70;;;;;;;;;;5036198;28;20238;-84
2021/11/21 04:58:51;;;;;;;6.70;6.10;;;;;;;;;;5036645;28;20249;-84
2021/11/21 05:01:19;;;;;;;8.07;5.38;;;;;;;;;;5036632;28;20245;-84
2021/11/21 05:03:47;;;;;;;4.90;4.45;;;;;;;;;;5036399;28;20187;-84
2021/11/21 05:06:15;;;;;;;4.18;3.80;;;;;;;;;;5036428;28;20233;-84
2021/11/21 05:08:43;;;;;;;4.60;4.20;;;;;;;;;;5035848;28;20262;-84
2021/11/21 05:11:12;;;;;;;4.65;4.25;;;;;;;;;;5036882;28;20657;-84
2021/11/21 05:13:39;;;;;;;5.63;5.10;;;;;;;;;;5036529;28;20217;-84
2021/11/21 05:16:07;;;;;;;6.05;5.53;;;;;;;;;;5036791;28;20248;-84
2021/11/21 05:18:35;;;;;;;6.28;5.70;;;;;;;;;;5036703;28;20628;-84
2021/11/21 05:21:02;;;;;;;5.55;5.05;;;;;;;;;;5036060;28;20631;-83
2021/11/21 05:23:30;;;;;;;6.40;5.80;;;;;;;;;;5036904;28;20660;-84
2021/11/21 05:25:57;;;;;;;6.13;5.60;;;;;;;;;;5036295;28;20202;-84
2021/11/21 05:28:26;;;;;;;8.75;7.85;;;;;;;;;;5036311;28;20222;-83
2021/11/21 05:30:54;;;;;;;7.28;5.70;;;;;;;;;;5035625;28;20230;-84
2021/11/21 05:33:22;;;;;;;7.03;6.32;;;;;;;;;;5036113;28;20633;-84
2021/11/21 05:35:49;;;;;;;6.93;6.22;;;;;;;;;;5036082;28;20222;-84
2021/11/21 05:38:17;;;;;;;7.18;6.47;;;;;;;;;;5035911;28;20191;-84
2021/11/21 05:40:44;;;;;;;7.32;6.55;;;;;;;;;;5036452;28;20337;-84
2021/11/21 05:43:12;;;;;;;7.10;6.40;;;;;;;;;;5036650;28;20210;-84
2021/11/21 05:45:41;;;;;;;5.22;4.75;;;;;;;;;;5036920;28;20774;-84
2021/11/21 05:48:09;;;;;;;8.50;7.70;;;;;;;;;;5038241;28;20233;-86
2021/11/21 05:50:37;;;;;;;8.77;7.93;;;;;;;;;;5039819;28;20262;-86
2021/11/21 05:53:04;;;;;;;8.13;7.32;;;;;;;;;;5039776;28;20229;-86
2021/11/21 05:55:32;;;;;;;6.70;6.00;;;;;;;;;;5040166;28;20238;-85
2021/11/21 05:58:00;;;;;;;8.52;7.35;;;;;;;;;;5040341;28;20222;-85
2021/11/21 06:00:29;;;;;;;7.05;6.35;;;;;;;;;;5040453;28;20261;-85
2021/11/21 06:03:00;;;;;;;7.63;6.90;;;;;;;;;;5040462;28;20240;-86
2021/11/21 06:05:28;;;;;;;7.60;6.65;;;;;;;;;;5040343;28;20225;-85
2021/11/21 06:07:56;;;;;;;7.85;7.05;;;;;;;;;;5040129;28;20236;-85
2021/11/21 06:10:23;;;;;;;8.25;7.45;;;;;;;;;;5040292;28;20814;-86
2021/11/21 06:12:51;;;;;;;8.82;7.90;;;;;;;;;;5040293;28;20215;-86
2021/11/21 06:15:20;;;;;;;6.68;6.00;;;;;;;;;;5039477;28;20240;-85
2021/11/21 06:17:48;;;;;;;8.00;7.20;;;;;;;;;;5040271;28;20179;-86
2021/11/21 06:20:17;;;;;;;10.45;9.13;;;;;;;;;;5039526;28;20257;-85
2021/11/21 06:22:44;;;;;;;7.80;6.22;;;;;;;;;;5039335;28;20646;-86
2021/11/21 06:25:13;;;;;;;9.20;7.70;;;;;;;;;;5039677;28;20221;-86
2021/11/21 06:27:41;;;;;;;7.72;7.03;;;;;;;;;;5039407;28;20183;-85
2021/11/21 06:30:09;;;;;;;7.85;7.05;;;;;;;;;;5040219;28;20218;-86
2021/11/21 06:32:37;;;;;;;8.00;7.20;;;;;;;;;;5039612;28;20198;-85
2021/11/21 06:35:07;;;;;;;8.23;7.43;;;;;;;;;;5040307;28;20202;-85
2021/11/21 06:37:38;;;;;;;9.15;8.25;;;;;;;;;;5039275;28;20249;-85
2021/11/21 06:40:07;;;;;;;7.60;6.78;;;;;;;;;;5039159;28;20264;-85
2021/11/21 06:42:35;;;;;;;10.15;8.60;;;;;;;;;;5037704;28;20575;-85
2021/11/21 06:45:03;;;;;;;8.90;7.82;;;;;;;;;;5037820;28;20273;-85
2021/11/21 06:47:30;;;;;;;6.75;6.07;;;;;;;;;;5038288;28;20667;-85
2021/11/21 06:50:01;;;;;;;8.85;7.60;;;;;;;;;;5037522;28;20276;-85
2021/11/21 06:52:29;;;;;;;7.30;6.60;;;;;;;;;;5037864;28;20566;-85
2021/11/21 06:54:59;;;;;;;9.02;8.10;;;;;;;;;;5038409;28;20272;-85
2021/11/21 06:57:26;;;;;;;7.43;6.55;;;;;;;;;;5038133;28;20603;-85
2021/11/21 06:59:54;;;;;;;13.77;10.48;;;;;;;;;;5038507;28;20269;-86
2021/11/21 07:02:21;;;;;;;10.30;8.18;;;;;;;;;;5038647;28;20222;-86
2021/11/21 07:04:50;;;;;;;9.52;8.63;;;;;;;;;;5039723;28;20558;-85
2021/11/21 07:07:18;;;;;;;8.43;6.57;;;;;;;;;;5038727;28;20194;-85
2021/11/21 07:09:45;;;;;;;6.82;6.15;;;;;;;;;;5039316;28;20679;-85
2021/11/21 07:12:15;;;;;;;9.45;8.38;;;;;;;;;;5040306;28;20233;-85
2021/11/21 07:14:42;;;;;;;9.65;8.70;;;;;;;;;;5039092;28;20190;-85
2021/11/21 07:17:10;;;;;;;7.00;5.90;;;;;;;;;;5039064;28;20238;-84
2021/11/21 07:19:38;;;;;;;5.53;5.03;;;;;;;;;;5053846;28;20731;-84
2021/11/21 07:22:06;;;;;;;3.60;3.30;;;;;;;;;;5070232;28;20190;-84
2021/11/21 07:24:34;;;;;;;4.82;4.28;;;;;;;;;;5078331;28;20201;-83
2021/11/21 07:27:02;;;;;;;4.07;3.67;;;;;;;;;;5078878;28;20185;-85
2021/11/21 07:29:31;;;;;;;3.30;3.00;;;;;;;;;;5078736;28;20282;-84
2021/11/21 07:32:00;;;;;;;3.20;2.97;;;;;;;;;;5079573;28;20618;-85
2021/11/21 07:34:28;;;;;;;3.78;3.47;;;;;;;;;;5078442;28;20223;-84
2021/11/21 07:36:55;;;;;;;4.22;3.83;;;;;;;;;;5077510;28;20229;-83
2021/11/21 07:39:25;;;;;;;3.15;2.85;;;;;;;;;;5068209;28;20257;-85
2021/11/21 07:41:53;;;;;;;3.50;3.20;;;;;;;;;;5057580;28;20199;-83
2021/11/21 07:44:21;;;;;;;3.20;2.95;;;;;;;;;;5057758;28;20229;-84
2021/11/21 07:46:50;;;;;;;4.50;4.10;;;;;;;;;;5057144;28;20225;-84
2021/11/21 07:49:18;;;;;;;3.88;3.58;;;;;;;;;;5058214;28;20271;-84
2021/11/21 07:51:47;;;;;;;3.97;3.67;;;;;;;;;;5058218;28;20208;-84
2021/11/21 07:54:15;;;;;;;5.20;4.70;;;;;;;;;;5057900;28;20197;-84
2021/11/21 07:56:43;;;;;;;4.35;3.95;;;;;;;;;;5057035;28;20226;-84
2021/11/21 07:59:11;;;;;;;5.50;5.00;;;;;;;;;;5057472;28;20253;-84
2021/11/21 08:01:39;;;;;;;5.00;4.05;;;;;;;;;;5058493;28;20266;-84
2021/11/21 08:04:10;;;;;;;3.47;3.20;;;;;;;;;;5057547;28;20229;-83
2021/11/21 08:06:37;;;;;;;3.47;3.17;;;;;;;;;;5057806;28;20690;-82
2021/11/21 08:09:05;;;;;;;4.55;4.15;;;;;;;;;;5054518;28;20261;-82
2021/11/21 08:11:33;;;;;;;5.57;5.07;;;;;;;;;;5054900;28;20352;-82
2021/11/21 08:14:00;;;;;;;5.13;4.63;;;;;;;;;;5055182;28;20786;-82
2021/11/21 08:16:28;;;;;;;6.18;4.78;;;;;;;;;;5055267;28;20209;-82
2021/11/21 08:18:55;;;;;;;3.47;3.17;;;;;;;;;;5055049;28;20261;-82
2021/11/21 08:21:27;;;;;;;3.70;3.40;;;;;;;;;;5055037;28;20237;-83
2021/11/21 08:23:55;;;;;;;4.00;3.30;;;;;;;;;;5054209;28;20228;-83
2021/11/21 08:26:22;;;;;;;3.13;2.83;;;;;;;;;;5055459;28;20598;-83
2021/11/21 08:28:50;;;;;;;3.95;3.55;;;;;;;;;;5054463;28;20688;-83
2021/11/21 08:31:17;;;;;;;2.72;2.53;;;;;;;;;;5054713;28;20229;-82
2021/11/21 08:33:45;;;;;;;3.55;3.25;;;;;;;;;;5054411;28;20221;-82
2021/11/21 08:36:14;;;;;;;4.10;3.75;;;;;;;;;;5055845;28;20269;-84
2021/11/21 08:38:43;;;;;;;5.18;4.68;;;;;;;;;;5056226;28;20762;-82
2021/11/21 08:41:11;;;;;;;4.30;3.90;;;;;;;;;;5052837;28;20222;-82
2021/11/21 08:43:38;;;;;;;6.20;5.50;;;;;;;;;;5055015;28;20248;-84
2021/11/21 08:46:06;;;;;;;8.82;7.97;;;;;;;;;;5053942;28;20233;-84
2021/11/21 08:48:34;;;;;;;6.97;6.28;;;;;;;;;;5055679;28;20225;-83
2021/11/21 08:51:01;;;;;;;9.15;6.88;;;;;;;;;;5056534;28;20217;-85
2021/11/21 08:53:30;;;;;;;7.18;6.47;;;;;;;;;;5058419;28;20221;-86
2021/11/21 08:55:59;;;;;;;5.78;5.18;;;;;;;;;;5055656;28;20207;-85
2021/11/21 08:58:26;;;;;;;4.05;3.67;;;;;;;;;;5070695;28;20248;-85
2021/11/21 09:00:54;;;;;;;5.50;5.00;;;;;;;;;;5068409;28;20232;-85
2021/11/21 09:03:22;;;;;;;6.93;5.88;;;;;;;;;;5055851;28;20186;-85
2021/11/21 09:05:49;;;;;;;5.25;4.78;;;;;;;;;;5054650;28;20259;-85
2021/11/21 09:08:17;;;;;;;7.13;6.43;;;;;;;;;;5055077;28;20627;-85
2021/11/21 09:10:45;;;;;;;6.20;5.60;;;;;;;;;;5065101;28;20221;-86
2021/11/21 09:13:14;;;;;;;5.55;5.05;;;;;;;;;;5055505;28;20225;-86
2021/11/21 09:15:42;;;;;;;11.10;7.70;;;;;;;;;;5054892;28;20241;-85
2021/11/21 09:18:10;;;;;;;6.07;5.00;;;;;;;;;;5055573;28;20260;-85
2021/11/21 09:20:38;;;;;;;5.00;4.10;;;;;;;;;;5055860;28;20241;-85
2021/11/21 09:23:10;;;;;;;5.22;4.72;;;;;;;;;;5055659;28;20660;-85
2021/11/21 09:25:38;;;;;;;3.88;3.53;;;;;;;;;;5058000;28;20174;-86
2021/11/21 09:28:06;;;;;;;3.28;2.97;;;;;;;;;;5059685;28;20600;-86
2021/11/21 09:30:36;;;;;;;2.30;2.10;;;;;;;;;;5060375;28;20707;-86
2021/11/21 09:33:03;;;;;;;2.55;2.35;;;;;;;;;;5059453;28;20225;-86
2021/11/21 09:35:31;;;;;;;2.55;2.35;;;;;;;;;;5058719;28;20280;-86
2021/11/21 09:38:02;;;;;;;3.60;2.95;;;;;;;;;;5059251;28;20222;-86
2021/11/21 09:40:31;;;;;;;4.43;3.95;;;;;;;;;;5058845;28;20253;-86
2021/11/21 09:43:00;;;;;;;3.42;3.13;;;;;;;;;;5059504;28;20217;-86
2021/11/21 09:45:28;;;;;;;2.53;2.33;;;;;;;;;;5059433;28;20260;-87
2021/11/21 09:47:59;;;;;;;2.30;2.13;;;;;;;;;;5059646;28;20189;-86
2021/11/21 09:50:29;;;;;;;2.42;1.85;;;;;;;;;;5058966;28;20225;-82
2021/11/21 09:52:58;;;;;;;2.53;2.33;;;;;;;;;;5057792;28;20236;-84
2021/11/21 09:55:26;;;;;;;2.97;2.78;;;;;;;;;;5057713;28;20247;-82
2021/11/21 09:57:54;;;;;;;1.80;1.70;;;;;;;;;;5057752;28;20222;-82
2021/11/21 10:00:26;;;;;;;2.00;1.90;;;;;;;;;;5057113;28;20586;-82
2021/11/21 10:03:03;;;;;;;1.83;1.73;;;;;;;;;;5059993;28;20644;-82
2021/11/21 10:05:33;;;;;;;1.92;1.80;;;;;;;;;;5057233;28;20206;-83
2021/11/21 10:08:06;;;;;;;2.33;2.15;;;;;;;;;;5057720;28;20209;-84
2021/11/21 10:10:41;;;;;;;2.97;2.67;;;;;;;;;;5057751;28;20233;-83
2021/11/21 10:13:27;;;;;;;2.13;2.03;;;;;;;;;;5058708;28;20260;-84
2021/11/21 10:15:54;;;;;;;2.03;1.90;;;;;;;;;;5058032;28;20201;-83
2021/11/21 10:18:24;;;;;;;4.10;3.72;;;;;;;;;;5057352;28;20264;-84
2021/11/21 10:20:52;;;;;;;3.40;2.90;;;;;;;;;;5056715;28;20256;-83
2021/11/21 10:23:23;;;;;;;4.93;4.15;;;;;;;;;;5055893;28;20206;-82
2021/11/21 10:25:54;;;;;;;3.42;2.83;;;;;;;;;;5056592;28;20186;-82
2021/11/21 10:28:33;;;;;;;2.20;2.00;;;;;;;;;;5038703;28;20198;-84
2021/11/21 10:31:13;;;;;;;2.40;2.20;;;;;;;;;;5035971;28;20218;-83
2021/11/21 10:33:47;;;;;;;2.50;2.30;;;;;;;;;;5035072;28;20240;-83
2021/11/21 10:36:19;;;;;;;2.25;2.05;;;;;;;;;;5054054;28;20621;-83
2021/11/21 10:38:51;;;;;;;2.42;2.22;;;;;;;;;;5054968;28;20665;-83
2021/11/21 10:41:23;;;;;;;1.60;1.50;;;;;;;;;;5054969;28;20228;-83
2021/11/21 10:44:03;;;;;;;1.65;1.55;;;;;;;;;;5055319;28;20192;-83
2021/11/21 10:46:38;;;;;;;1.50;1.40;;;;;;;;;;5070190;28;20220;-84
2021/11/21 10:49:34;;;;;;;2.17;2.00;;;;;;;;;;5075304;28;20255;-83
2021/11/21 10:52:16;;;;;;;1.85;1.75;;;;;;;;;;5075381;28;20232;-83
2021/11/21 10:55:21;;;;;;;2.78;2.58;;;;;;;;;;5075733;28;20245;-83
2021/11/21 10:57:48;;;;;;;2.67;2.28;;;;;;;;;;5035990;28;20211;-83
2021/11/21 11:00:18;;;;;;;1.88;1.77;;;;;;;;;;5061590;28;20305;-84
2021/11/21 11:02:46;;;;;;;2.00;1.80;;;;;;;;;;5055141;28;20309;-84
2021/11/21 11:05:19;;;;;;;1.65;1.55;;;;;;;;;;5055420;28;20653;-84
2021/11/21 11:07:57;;;;;;;1.20;1.20;;;;;;;;;;5055088;28;20619;-84
2021/11/21 11:10:28;;;;;;;1.95;1.80;;;;;;;;;;5055134;28;20260;-84
2021/11/21 11:12:58;;;;;;;1.90;1.80;;;;;;;;;;5054449;28;20212;-83
2021/11/21 11:15:27;;;;;;;5.40;3.15;;;;;;;;;;5054693;28;20656;-83
2021/11/21 11:17:55;;;;;;;2.40;2.20;;;;;;;;;;5054721;28;20273;-83
2021/11/21 11:20:27;;;;;;;1.95;1.75;;;;;;;;;;5054677;28;20261;-84
2021/11/21 11:22:55;;;;;;;2.97;2.78;;;;;;;;;;5055205;28;20562;-82
2021/11/21 11:25:27;;;;;;;2.40;2.22;;;;;;;;;;5054915;28;20186;-83
2021/11/21 11:28:00;;;;;;;2.28;2.08;;;;;;;;;;5053916;28;20901;-84
2021/11/21 11:30:31;;;;;;;1.98;1.77;;;;;;;;;;5053895;28;20264;-83
2021/11/21 11:33:09;;;;;;;2.22;2.03;;;;;;;;;;5054106;28;20281;-83
2021/11/21 11:35:41;;;;;;;2.25;2.13;;;;;;;;;;5054339;28;20217;-83
2021/11/21 11:38:16;;;;;;;2.00;1.90;;;;;;;;;;5054145;28;20202;-84
2021/11/21 11:40:55;;;;;;;2.85;2.60;;;;;;;;;;5054306;28;20257;-84
2021/11/21 11:43:41;;;;;;;2.40;2.20;;;;;;;;;;5054168;28;20200;-83
2021/11/21 11:46:27;;;;;;;1.55;1.45;;;;;;;;;;5053624;28;20197;-84
2021/11/21 11:48:58;;;;;;;1.92;1.83;;;;;;;;;;5054970;28;20313;-83
2021/11/21 11:51:53;;;;;;;3.08;2.00;;;;;;;;;;5054542;28;20652;-83
2021/11/21 11:54:40;;;;;;;2.00;1.80;;;;;;;;;;5034547;28;20242;-83
2021/11/21 11:57:09;;;;;;;2.45;2.25;;;;;;;;;;5053187;28;20225;-84
2021/11/21 11:59:41;;;;;;;2.08;1.90;;;;;;;;;;5053285;28;20229;-85
2021/11/21 12:02:11;;;;;;;2.03;1.92;;;;;;;;;;5054107;28;20605;-84
2021/11/21 12:04:57;;;;;;;2.25;1.90;;;;;;;;;;5054312;28;20217;-84
2021/11/21 12:07:33;;;;;;;1.95;1.85;;;;;;;;;;5054671;28;20281;-84
2021/11/21 12:10:09;;;;;;;1.60;1.50;;;;;;;;;;5054161;28;20229;-84
2021/11/21 12:13:05;;;;;;;2.90;2.17;;;;;;;;;;5054476;28;20250;-84
2021/11/21 12:15:51;;;;;;;2.28;2.08;;;;;;;;;;5034667;28;20260;-83
2021/11/21 12:18:20;;;;;;;2.55;2.35;;;;;;;;;;5034267;28;20187;-84
2021/11/21 12:20:55;;;;;;;2.42;2.28;;;;;;;;;;5051388;28;20256;-84
2021/11/21 12:24:00;;;;;;;2.67;2.20;;;;;;;;;;5054764;28;20182;-84
2021/11/21 12:26:36;;;;;;;2.75;2.50;;;;;;;;;;5053479;28;20190;-84
2021/11/21 12:29:24;;;;;;;2.50;2.30;;;;;;;;;;5053506;28;20233;-84
2021/11/21 12:31:53;;;;;;;2.40;2.20;;;;;;;;;;5053986;28;20206;-85
2021/11/21 12:34:43;;;;;;;2.45;2.25;;;;;;;;;;5054184;28;20209;-85
2021/11/21 12:37:17;;;;;;;2.55;2.35;;;;;;;;;;5034596;28;20220;-85
2021/11/21 12:39:51;;;;;;;3.90;3.60;;;;;;;;;;5038769;28;20312;-84
2021/11/21 12:42:27;;;;;;;2.78;2.58;;;;;;;;;;5052936;28;20213;-84
2021/11/21 12:45:10;;;;;;;2.72;2.53;;;;;;;;;;5053376;28;20198;-84
2021/11/21 12:47:39;;;;;;;2.42;2.22;;;;;;;;;;5047839;28;20193;-84
2021/11/21 12:50:17;;;;;;;2.20;2.00;;;;;;;;;;5053606;28;20244;-84
2021/11/21 12:52:58;;;;;;;2.55;2.35;;;;;;;;;;5053726;28;20196;-84
2021/11/21 12:55:32;;;;;;;2.95;2.72;;;;;;;;;;5053578;28;20292;-84
2021/11/21 12:58:00;;;;;;;2.75;2.55;;;;;;;;;;5053696;28;20217;-83
2021/11/21 13:00:34;;;;;;;3.03;2.58;;;;;;;;;;5053709;28;20221;-84
2021/11/21 13:03:07;;;;;;;2.50;2.30;;;;;;;;;;5053735;28;20627;-84
2021/11/21 13:05:38;;;;;;;2.70;2.50;;;;;;;;;;5053851;28;20627;-83
2021/11/21 13:08:16;;;;;;;2.63;2.42;;;;;;;;;;5054305;28;20214;-83
2021/11/21 13:10:48;;;;;;;2.50;2.30;;;;;;;;;;5053528;28;20616;-84
2021/11/21 13:13:20;;;;;;;3.40;3.10;;;;;;;;;;5060490;28;20217;-83
2021/11/21 13:15:49;;;;;;;2.65;2.45;;;;;;;;;;5033917;28;20301;-82
2021/11/21 13:18:20;;;;;;;3.90;3.05;;;;;;;;;;5033456;28;20276;-85
2021/11/21 13:20:52;;;;;;;3.53;2.53;;;;;;;;;;5040536;28;20206;-83
2021/11/21 13:23:23;;;;;;;3.13;2.83;;;;;;;;;;5058913;28;20204;-84
2021/11/21 13:25:56;;;;;;;2.80;2.60;;;;;;;;;;5064636;28;20248;-83
2021/11/21 13:28:41;;;;;;;2.65;2.45;;;;;;;;;;5052715;28;20222;-82
2021/11/21 13:31:14;;;;;;;2.88;2.67;;;;;;;;;;5049100;28;20244;-81
2021/11/21 13:33:43;;;;;;;2.90;2.70;;;;;;;;;;5064912;28;20193;-83
2021/11/21 13:36:20;;;;;;;3.38;2.92;;;;;;;;;;5073454;28;20174;-83
2021/11/21 13:38:53;;;;;;;2.70;2.35;;;;;;;;;;5052337;28;20271;-84
2021/11/21 13:41:22;;;;;;;3.65;2.13;;;;;;;;;;5053478;28;20294;-84
2021/11/21 13:43:52;;;;;;;3.55;2.92;;;;;;;;;;5048341;28;20276;-83
2021/11/21 13:46:32;;;;;;;3.25;2.95;;;;;;;;;;5052832;28;20214;-82
2021/11/21 13:49:00;;;;;;;2.90;2.55;;;;;;;;;;5053108;28;20253;-83
2021/11/21 13:51:33;;;;;;;3.65;3.35;;;;;;;;;;5053208;28;20277;-83
2021/11/21 13:54:03;;;;;;;3.42;2.88;;;;;;;;;;5066793;28;20589;-81
2021/11/21 13:56:32;;;;;;;2.85;2.60;;;;;;;;;;5071703;28;20276;-83
2021/11/21 13:59:13;;;;;;;3.03;2.78;;;;;;;;;;5070766;28;20256;-83
2021/11/21 14:01:48;;;;;;;5.57;3.13;;;;;;;;;;5032097;28;20699;-82
2021/11/21 14:04:16;;;;;;;2.95;2.67;;;;;;;;;;5063797;28;20632;-82
2021/11/21 14:06:44;;;;;;;2.33;2.13;;;;;;;;;;5058853;28;20204;-82
2021/11/21 14:09:14;;;;;;;3.10;2.80;;;;;;;;;;5053663;28;20324;-82
2021/11/21 14:11:43;;;;;;;2.88;2.65;;;;;;;;;;5055694;28;20238;-82
2021/11/21 14:14:14;;;;;;;2.97;2.75;;;;;;;;;;5055614;28;20286;-83
2021/11/21 14:16:48;;;;;;;3.45;3.15;;;;;;;;;;5055552;28;20221;-83
2021/11/21 14:19:30;;;;;;;6.82;3.53;;;;;;;;;;5056034;28;20308;-83
2021/11/21 14:22:07;;;;;;;4.60;3.80;;;;;;;;;;5055640;28;20277;-83
2021/11/21 14:24:35;;;;;;;4.38;2.88;;;;;;;;;;5074364;28;20216;-84
2021/11/21 14:27:18;;;;;;;4.20;2.95;;;;;;;;;;5056145;28;20182;-83
2021/11/21 14:29:56;;;;;;;3.97;3.13;;;;;;;;;;5056331;28;20214;-84
2021/11/21 14:32:24;;;;;;;3.92;2.90;;;;;;;;;;5055238;28;20240;-83
2021/11/21 14:34:51;;;;;;;2.88;2.58;;;;;;;;;;5056227;28;20695;-83
2021/11/21 14:37:23;;;;;;;2.10;1.90;;;;;;;;;;5054783;28;20225;-83
2021/11/21 14:39:51;;;;;;;2.95;2.53;;;;;;;;;;5056292;28;20253;-82
2021/11/21 14:42:27;;;;;;;2.85;2.65;;;;;;;;;;5054628;28;20209;-83
2021/11/21 14:44:55;;;;;;;3.63;2.67;;;;;;;;;;5055388;28;20224;-82
2021/11/21 14:47:23;;;;;;;4.05;3.40;;;;;;;;;;5054520;28;20702;-84
2021/11/21 14:49:52;;;;;;;5.20;3.65;;;;;;;;;;5055562;28;20307;-83
2021/11/21 14:52:21;;;;;;;5.60;3.53;;;;;;;;;;5055818;28;20204;-85
2021/11/21 14:54:51;;;;;;;5.43;3.40;;;;;;;;;;5055473;28;20202;-85
2021/11/21 14:57:20;;;;;;;4.63;3.35;;;;;;;;;;5057032;28;20212;-84
2021/11/21 14:59:49;;;;;;;4.15;3.03;;;;;;;;;;5057456;28;20221;-84
2021/11/21 15:02:17;;;;;;;4.63;3.50;;;;;;;;;;5056257;28;20241;-84